sensor_id;sensor_type;location;lat;lon;timestamp;temperature;humidity
13880;DHT22;7010;48.200;16.332;2022-09-24T00:02:19;10.00;99.90
13880;DHT22;7010;48.200;16.332;2022-09-24T00:04:48;10.00;99.90
13880;DHT22;7010;48.200;16.332;2022-09-24T00:07:16;10.00;99.90
13880;DHT22;7010;48.200;16.332;2022-09-24T00:09:44;10.00;99.90
13880;DHT22;7010;48.200;16.332;2022-09-24T00:12:13;10.00;99.90
13880;DHT22;7010;48.200;16.332;2022-09-24T00:14:42;9.90;99.90
13880;DHT22;7010;48.200;16.332;2022-09-24T00:17:10;9.90;99.90
13880;DHT22;7010;48.200;16.332;2022-09-24T00:19:38;9.90;99.90
13880;DHT22;7010;48.200;16.332;2022-09-24T00:22:08;9.90;99.90
13880;DHT22;7010;48.200;16.332;2022-09-24T00:24:37;9.80;99.90
13880;DHT22;7010;48.200;16.332;2022-09-24T00:27:23;9.80;99.90
13880;DHT22;7010;48.200;16.332;2022-09-24T00:29:51;9.70;99.90
13880;DHT22;7010;48.200;16.332;2022-09-24T00:32:19;9.70;99.90
13880;DHT22;7010;48.200;16.332;2022-09-24T00:34:49;9.70;99.90
13880;DHT22;7010;48.200;16.332;2022-09-24T00:37:20;9.70;99.90
13880;DHT22;7010;48.200;16.332;2022-09-24T00:39:48;9.70;99.90
13880;DHT22;7010;48.200;16.332;2022-09-24T00:42:18;9.60;99.90
13880;DHT22;7010;48.200;16.332;2022-09-24T00:44:51;9.60;99.90
13880;DHT22;7010;48.200;16.332;2022-09-24T00:47:27;9.60;99.90
13880;DHT22;7010;48.200;16.332;2022-09-24T00:50:09;9.60;99.90
13880;DHT22;7010;48.200;16.332;2022-09-24T00:52:42;9.60;99.90
13880;DHT22;7010;48.200;16.332;2022-09-24T00:55:13;9.50;99.90
13880;DHT22;7010;48.200;16.332;2022-09-24T00:57:42;9.50;99.90
13880;DHT22;7010;48.200;16.332;2022-09-24T01:00:12;9.40;99.90
13880;DHT22;7010;48.200;16.332;2022-09-24T01:02:44;9.40;99.90
13880;DHT22;7010;48.200;16.332;2022-09-24T01:05:13;9.40;99.90
13880;DHT22;7010;48.200;16.332;2022-09-24T01:07:43;9.30;99.90
13880;DHT22;7010;48.200;16.332;2022-09-24T01:10:14;9.30;99.90
13880;DHT22;7010;48.200;16.332;2022-09-24T01:13:11;9.30;99.90
13880;DHT22;7010;48.200;16.332;2022-09-24T01:15:46;9.30;99.90
13880;DHT22;7010;48.200;16.332;2022-09-24T01:18:19;9.40;99.90
13880;DHT22;7010;48.200;16.332;2022-09-24T01:21:15;9.30;99.90
13880;DHT22;7010;48.200;16.332;2022-09-24T01:24:08;9.30;99.90
13880;DHT22;7010;48.200;16.332;2022-09-24T01:26:50;9.30;99.90
13880;DHT22;7010;48.200;16.332;2022-09-24T01:29:28;9.30;99.90
13880;DHT22;7010;48.200;16.332;2022-09-24T01:32:04;9.30;99.90
13880;DHT22;7010;48.200;16.332;2022-09-24T01:34:38;9.30;99.90
13880;DHT22;7010;48.200;16.332;2022-09-24T01:37:07;9.30;99.90
13880;DHT22;7010;48.200;16.332;2022-09-24T01:39:37;9.30;99.90
13880;DHT22;7010;48.200;16.332;2022-09-24T01:42:06;9.30;99.90
13880;DHT22;7010;48.200;16.332;2022-09-24T01:44:39;9.30;99.90
13880;DHT22;7010;48.200;16.332;2022-09-24T01:47:15;9.20;99.90
13880;DHT22;7010;48.200;16.332;2022-09-24T01:49:45;9.20;99.90
13880;DHT22;7010;48.200;16.332;2022-09-24T01:52:17;9.20;99.90
13880;DHT22;7010;48.200;16.332;2022-09-24T01:54:47;9.20;99.90
13880;DHT22;7010;48.200;16.332;2022-09-24T01:57:21;9.20;99.90
13880;DHT22;7010;48.200;16.332;2022-09-24T01:59:56;9.10;99.90
13880;DHT22;7010;48.200;16.332;2022-09-24T02:02:29;9.10;99.90
13880;DHT22;7010;48.200;16.332;2022-09-24T02:05:04;9.10;99.90
13880;DHT22;7010;48.200;16.332;2022-09-24T02:07:36;9.10;99.90
13880;DHT22;7010;48.200;16.332;2022-09-24T02:10:13;9.10;99.90
13880;DHT22;7010;48.200;16.332;2022-09-24T02:12:44;9.10;99.90
13880;DHT22;7010;48.200;16.332;2022-09-24T02:15:17;9.10;99.90
13880;DHT22;7010;48.200;16.332;2022-09-24T02:17:50;9.00;99.90
13880;DHT22;7010;48.200;16.332;2022-09-24T02:20:21;9.00;99.90
13880;DHT22;7010;48.200;16.332;2022-09-24T02:22:51;9.00;99.90
13880;DHT22;7010;48.200;16.332;2022-09-24T02:25:23;9.00;99.90
13880;DHT22;7010;48.200;16.332;2022-09-24T02:27:52;9.00;99.90
13880;DHT22;7010;48.200;16.332;2022-09-24T02:30:22;9.00;99.90
13880;DHT22;7010;48.200;16.332;2022-09-24T02:32:52;9.00;99.90
13880;DHT22;7010;48.200;16.332;2022-09-24T02:35:21;9.00;99.90
13880;DHT22;7010;48.200;16.332;2022-09-24T02:37:49;9.00;99.90
13880;DHT22;7010;48.200;16.332;2022-09-24T02:40:17;9.00;99.90
13880;DHT22;7010;48.200;16.332;2022-09-24T02:42:45;9.00;99.90
13880;DHT22;7010;48.200;16.332;2022-09-24T02:45:14;9.00;99.90
13880;DHT22;7010;48.200;16.332;2022-09-24T02:47:43;8.90;99.90
13880;DHT22;7010;48.200;16.332;2022-09-24T02:50:11;9.00;99.90
13880;DHT22;7010;48.200;16.332;2022-09-24T02:52:40;9.00;99.90
13880;DHT22;7010;48.200;16.332;2022-09-24T02:55:08;9.00;99.90
13880;DHT22;7010;48.200;16.332;2022-09-24T02:57:36;9.00;99.90
13880;DHT22;7010;48.200;16.332;2022-09-24T03:00:05;9.00;99.90
13880;DHT22;7010;48.200;16.332;2022-09-24T03:02:33;9.00;99.90
13880;DHT22;7010;48.200;16.332;2022-09-24T03:05:04;9.00;99.90
13880;DHT22;7010;48.200;16.332;2022-09-24T03:07:32;9.00;99.90
13880;DHT22;7010;48.200;16.332;2022-09-24T03:10:00;9.10;99.90
13880;DHT22;7010;48.200;16.332;2022-09-24T03:12:28;9.10;99.90
13880;DHT22;7010;48.200;16.332;2022-09-24T03:14:56;9.10;99.90
13880;DHT22;7010;48.200;16.332;2022-09-24T03:17:24;9.10;99.90
13880;DHT22;7010;48.200;16.332;2022-09-24T03:19:53;9.10;99.90
13880;DHT22;7010;48.200;16.332;2022-09-24T03:22:23;9.10;99.90
13880;DHT22;7010;48.200;16.332;2022-09-24T03:24:51;9.00;99.90
13880;DHT22;7010;48.200;16.332;2022-09-24T03:27:19;9.00;99.90
13880;DHT22;7010;48.200;16.332;2022-09-24T03:29:48;8.90;99.90
13880;DHT22;7010;48.200;16.332;2022-09-24T03:32:33;8.90;99.90
13880;DHT22;7010;48.200;16.332;2022-09-24T03:35:01;9.00;99.90
13880;DHT22;7010;48.200;16.332;2022-09-24T03:37:31;9.00;99.90
13880;DHT22;7010;48.200;16.332;2022-09-24T03:40:03;9.00;99.90
13880;DHT22;7010;48.200;16.332;2022-09-24T03:42:32;9.00;99.90
13880;DHT22;7010;48.200;16.332;2022-09-24T03:45:01;9.00;99.90
13880;DHT22;7010;48.200;16.332;2022-09-24T03:47:29;8.90;99.90
13880;DHT22;7010;48.200;16.332;2022-09-24T03:49:57;8.90;99.90
13880;DHT22;7010;48.200;16.332;2022-09-24T03:52:25;8.90;99.90
13880;DHT22;7010;48.200;16.332;2022-09-24T03:54:55;8.90;99.90
13880;DHT22;7010;48.200;16.332;2022-09-24T03:57:23;8.90;99.90
13880;DHT22;7010;48.200;16.332;2022-09-24T03:59:51;8.80;99.90
13880;DHT22;7010;48.200;16.332;2022-09-24T04:02:20;8.80;99.90
13880;DHT22;7010;48.200;16.332;2022-09-24T04:04:48;8.80;99.90
13880;DHT22;7010;48.200;16.332;2022-09-24T04:07:16;8.80;99.90
13880;DHT22;7010;48.200;16.332;2022-09-24T04:09:44;8.80;99.90
13880;DHT22;7010;48.200;16.332;2022-09-24T04:12:14;8.80;99.90
13880;DHT22;7010;48.200;16.332;2022-09-24T04:14:42;8.80;99.90
13880;DHT22;7010;48.200;16.332;2022-09-24T04:17:10;8.80;99.90
13880;DHT22;7010;48.200;16.332;2022-09-24T04:19:40;8.80;99.90
13880;DHT22;7010;48.200;16.332;2022-09-24T04:22:08;8.80;99.90
13880;DHT22;7010;48.200;16.332;2022-09-24T04:24:36;8.80;99.90
13880;DHT22;7010;48.200;16.332;2022-09-24T04:27:04;8.80;99.90
13880;DHT22;7010;48.200;16.332;2022-09-24T04:29:34;8.70;99.90
13880;DHT22;7010;48.200;16.332;2022-09-24T04:32:02;8.80;99.90
13880;DHT22;7010;48.200;16.332;2022-09-24T04:34:30;8.70;99.90
13880;DHT22;7010;48.200;16.332;2022-09-24T04:36:59;8.70;99.90
13880;DHT22;7010;48.200;16.332;2022-09-24T04:39:27;8.80;99.90
13880;DHT22;7010;48.200;16.332;2022-09-24T04:41:55;8.70;99.90
13880;DHT22;7010;48.200;16.332;2022-09-24T04:44:23;8.70;99.90
13880;DHT22;7010;48.200;16.332;2022-09-24T04:46:55;8.70;99.90
13880;DHT22;7010;48.200;16.332;2022-09-24T04:49:28;8.70;99.90
13880;DHT22;7010;48.200;16.332;2022-09-24T04:51:57;8.70;99.90
13880;DHT22;7010;48.200;16.332;2022-09-24T04:54:25;8.70;99.90
13880;DHT22;7010;48.200;16.332;2022-09-24T04:56:55;8.70;99.90
13880;DHT22;7010;48.200;16.332;2022-09-24T04:59:24;8.60;99.90
13880;DHT22;7010;48.200;16.332;2022-09-24T05:01:56;8.60;99.90
13880;DHT22;7010;48.200;16.332;2022-09-24T05:04:24;8.60;99.90
13880;DHT22;7010;48.200;16.332;2022-09-24T05:06:52;8.50;99.90
13880;DHT22;7010;48.200;16.332;2022-09-24T05:09:21;8.60;99.90
13880;DHT22;7010;48.200;16.332;2022-09-24T05:11:49;8.60;99.90
13880;DHT22;7010;48.200;16.332;2022-09-24T05:14:17;8.60;99.90
13880;DHT22;7010;48.200;16.332;2022-09-24T05:16:45;8.60;99.90
13880;DHT22;7010;48.200;16.332;2022-09-24T05:19:15;8.70;99.90
13880;DHT22;7010;48.200;16.332;2022-09-24T05:21:43;8.60;99.90
13880;DHT22;7010;48.200;16.332;2022-09-24T05:24:12;8.70;99.90
13880;DHT22;7010;48.200;16.332;2022-09-24T05:26:40;8.70;99.90
13880;DHT22;7010;48.200;16.332;2022-09-24T05:29:26;8.70;99.90
13880;DHT22;7010;48.200;16.332;2022-09-24T05:31:54;8.70;99.90
13880;DHT22;7010;48.200;16.332;2022-09-24T05:34:24;8.70;99.90
13880;DHT22;7010;48.200;16.332;2022-09-24T05:36:52;8.70;99.90
13880;DHT22;7010;48.200;16.332;2022-09-24T05:39:20;8.70;99.90
13880;DHT22;7010;48.200;16.332;2022-09-24T05:41:48;8.80;99.90
13880;DHT22;7010;48.200;16.332;2022-09-24T05:44:16;8.80;99.90
13880;DHT22;7010;48.200;16.332;2022-09-24T05:46:47;8.90;99.90
13880;DHT22;7010;48.200;16.332;2022-09-24T05:49:16;8.90;99.90
13880;DHT22;7010;48.200;16.332;2022-09-24T05:51:51;9.00;99.90
13880;DHT22;7010;48.200;16.332;2022-09-24T05:54:20;9.10;99.90
13880;DHT22;7010;48.200;16.332;2022-09-24T05:56:48;9.10;99.90
13880;DHT22;7010;48.200;16.332;2022-09-24T05:59:17;9.20;99.90
13880;DHT22;7010;48.200;16.332;2022-09-24T06:01:45;9.30;99.90
13880;DHT22;7010;48.200;16.332;2022-09-24T06:04:14;9.30;99.90
13880;DHT22;7010;48.200;16.332;2022-09-24T06:06:43;9.30;99.90
13880;DHT22;7010;48.200;16.332;2022-09-24T06:09:13;9.40;99.90
13880;DHT22;7010;48.200;16.332;2022-09-24T06:11:41;9.40;99.90
13880;DHT22;7010;48.200;16.332;2022-09-24T06:14:10;9.40;99.90
13880;DHT22;7010;48.200;16.332;2022-09-24T06:16:38;9.40;99.90
13880;DHT22;7010;48.200;16.332;2022-09-24T06:19:07;9.40;99.90
13880;DHT22;7010;48.200;16.332;2022-09-24T06:21:35;9.50;99.90
13880;DHT22;7010;48.200;16.332;2022-09-24T06:24:03;9.50;99.90
13880;DHT22;7010;48.200;16.332;2022-09-24T06:26:33;9.50;99.90
13880;DHT22;7010;48.200;16.332;2022-09-24T06:29:02;9.50;99.90
13880;DHT22;7010;48.200;16.332;2022-09-24T06:31:32;9.50;99.90
13880;DHT22;7010;48.200;16.332;2022-09-24T06:34:00;9.60;99.90
13880;DHT22;7010;48.200;16.332;2022-09-24T06:36:30;9.70;99.90
13880;DHT22;7010;48.200;16.332;2022-09-24T06:38:58;9.80;99.90
13880;DHT22;7010;48.200;16.332;2022-09-24T06:41:26;9.90;99.90
13880;DHT22;7010;48.200;16.332;2022-09-24T06:43:56;10.00;99.90
13880;DHT22;7010;48.200;16.332;2022-09-24T06:46:26;10.10;99.90
13880;DHT22;7010;48.200;16.332;2022-09-24T06:48:54;10.20;99.90
13880;DHT22;7010;48.200;16.332;2022-09-24T06:51:23;10.30;99.90
13880;DHT22;7010;48.200;16.332;2022-09-24T06:53:53;10.50;99.90
13880;DHT22;7010;48.200;16.332;2022-09-24T06:56:22;10.60;99.90
13880;DHT22;7010;48.200;16.332;2022-09-24T06:58:50;10.70;99.90
13880;DHT22;7010;48.200;16.332;2022-09-24T07:01:20;10.80;99.90
13880;DHT22;7010;48.200;16.332;2022-09-24T07:03:48;10.90;99.90
13880;DHT22;7010;48.200;16.332;2022-09-24T07:06:16;10.90;99.90
13880;DHT22;7010;48.200;16.332;2022-09-24T07:08:49;11.00;99.90
13880;DHT22;7010;48.200;16.332;2022-09-24T07:11:18;11.00;99.90
13880;DHT22;7010;48.200;16.332;2022-09-24T07:13:46;11.00;99.90
13880;DHT22;7010;48.200;16.332;2022-09-24T07:16:14;11.10;99.90
13880;DHT22;7010;48.200;16.332;2022-09-24T07:18:44;11.00;99.90
13880;DHT22;7010;48.200;16.332;2022-09-24T07:21:12;11.10;99.90
13880;DHT22;7010;48.200;16.332;2022-09-24T07:23:40;11.20;99.90
13880;DHT22;7010;48.200;16.332;2022-09-24T07:26:08;11.30;99.90
13880;DHT22;7010;48.200;16.332;2022-09-24T07:28:37;11.40;99.90
13880;DHT22;7010;48.200;16.332;2022-09-24T07:31:05;11.40;99.90
13880;DHT22;7010;48.200;16.332;2022-09-24T07:33:40;11.50;99.90
13880;DHT22;7010;48.200;16.332;2022-09-24T07:36:10;11.60;99.90
13880;DHT22;7010;48.200;16.332;2022-09-24T07:38:38;11.70;99.90
13880;DHT22;7010;48.200;16.332;2022-09-24T07:41:06;11.80;99.90
13880;DHT22;7010;48.200;16.332;2022-09-24T07:43:37;11.90;99.90
13880;DHT22;7010;48.200;16.332;2022-09-24T07:46:05;12.00;99.90
13880;DHT22;7010;48.200;16.332;2022-09-24T07:48:34;12.00;99.90
13880;DHT22;7010;48.200;16.332;2022-09-24T07:51:02;12.20;99.90
13880;DHT22;7010;48.200;16.332;2022-09-24T07:53:32;12.30;99.90
13880;DHT22;7010;48.200;16.332;2022-09-24T07:56:01;12.40;99.90
13880;DHT22;7010;48.200;16.332;2022-09-24T07:58:29;12.60;99.90
13880;DHT22;7010;48.200;16.332;2022-09-24T08:00:57;12.80;99.90
13880;DHT22;7010;48.200;16.332;2022-09-24T08:03:26;13.00;99.90
13880;DHT22;7010;48.200;16.332;2022-09-24T08:05:58;13.10;99.90
13880;DHT22;7010;48.200;16.332;2022-09-24T08:08:27;13.30;99.90
13880;DHT22;7010;48.200;16.332;2022-09-24T08:11:03;13.50;99.90
13880;DHT22;7010;48.200;16.332;2022-09-24T08:13:32;13.70;99.90
13880;DHT22;7010;48.200;16.332;2022-09-24T08:16:03;13.90;99.90
13880;DHT22;7010;48.200;16.332;2022-09-24T08:18:32;13.90;99.90
13880;DHT22;7010;48.200;16.332;2022-09-24T08:21:04;13.80;99.90
13880;DHT22;7010;48.200;16.332;2022-09-24T08:23:33;14.00;99.90
13880;DHT22;7010;48.200;16.332;2022-09-24T08:26:04;14.20;99.90
13880;DHT22;7010;48.200;16.332;2022-09-24T08:28:32;14.40;99.90
13880;DHT22;7010;48.200;16.332;2022-09-24T08:31:02;14.60;99.90
13880;DHT22;7010;48.200;16.332;2022-09-24T08:33:34;14.90;99.90
13880;DHT22;7010;48.200;16.332;2022-09-24T08:36:05;15.10;99.90
13880;DHT22;7010;48.200;16.332;2022-09-24T08:38:33;15.20;99.90
13880;DHT22;7010;48.200;16.332;2022-09-24T08:41:20;15.40;99.90
13880;DHT22;7010;48.200;16.332;2022-09-24T08:43:57;15.70;99.90
13880;DHT22;7010;48.200;16.332;2022-09-24T08:46:31;16.10;99.90
13880;DHT22;7010;48.200;16.332;2022-09-24T08:49:22;16.60;99.90
13880;DHT22;7010;48.200;16.332;2022-09-24T08:51:59;16.90;99.90
13880;DHT22;7010;48.200;16.332;2022-09-24T08:54:30;17.10;99.90
13880;DHT22;7010;48.200;16.332;2022-09-24T08:57:11;17.40;99.90
13880;DHT22;7010;48.200;16.332;2022-09-24T08:59:42;17.90;99.90
13880;DHT22;7010;48.200;16.332;2022-09-24T09:02:20;18.10;99.90
13880;DHT22;7010;48.200;16.332;2022-09-24T09:05:00;18.30;99.90
13880;DHT22;7010;48.200;16.332;2022-09-24T09:07:33;18.50;99.90
13880;DHT22;7010;48.200;16.332;2022-09-24T09:10:09;18.70;99.90
13880;DHT22;7010;48.200;16.332;2022-09-24T09:12:45;18.80;99.90
13880;DHT22;7010;48.200;16.332;2022-09-24T09:15:17;18.90;99.90
13880;DHT22;7010;48.200;16.332;2022-09-24T09:17:49;19.20;99.90
13880;DHT22;7010;48.200;16.332;2022-09-24T09:20:22;19.60;99.90
13880;DHT22;7010;48.200;16.332;2022-09-24T09:22:52;20.20;99.90
13880;DHT22;7010;48.200;16.332;2022-09-24T09:25:21;20.80;99.90
13880;DHT22;7010;48.200;16.332;2022-09-24T09:27:57;21.70;99.90
13880;DHT22;7010;48.200;16.332;2022-09-24T09:30:35;22.50;99.90
13880;DHT22;7010;48.200;16.332;2022-09-24T09:33:19;22.80;99.90
13880;DHT22;7010;48.200;16.332;2022-09-24T09:35:54;22.80;99.40
13880;DHT22;7010;48.200;16.332;2022-09-24T09:38:31;23.00;99.20
13880;DHT22;7010;48.200;16.332;2022-09-24T09:41:05;23.30;99.30
13880;DHT22;7010;48.200;16.332;2022-09-24T09:43:40;23.60;97.30
13880;DHT22;7010;48.200;16.332;2022-09-24T09:46:13;24.00;95.90
13880;DHT22;7010;48.200;16.332;2022-09-24T09:48:44;24.30;96.70
13880;DHT22;7010;48.200;16.332;2022-09-24T09:51:17;24.40;95.30
13880;DHT22;7010;48.200;16.332;2022-09-24T09:53:56;24.60;94.00
13880;DHT22;7010;48.200;16.332;2022-09-24T09:56:26;24.30;93.90
13880;DHT22;7010;48.200;16.332;2022-09-24T09:59:04;24.20;94.30
13880;DHT22;7010;48.200;16.332;2022-09-24T10:01:35;23.80;93.30
13880;DHT22;7010;48.200;16.332;2022-09-24T10:04:25;23.60;93.90
13880;DHT22;7010;48.200;16.332;2022-09-24T10:07:03;23.30;92.20
13880;DHT22;7010;48.200;16.332;2022-09-24T10:09:32;23.10;94.00
13880;DHT22;7010;48.200;16.332;2022-09-24T10:12:11;22.70;94.40
13880;DHT22;7010;48.200;16.332;2022-09-24T10:14:43;22.30;94.50
13880;DHT22;7010;48.200;16.332;2022-09-24T10:17:13;22.20;94.90
13880;DHT22;7010;48.200;16.332;2022-09-24T10:19:44;22.20;95.20
13880;DHT22;7010;48.200;16.332;2022-09-24T10:22:19;22.30;95.90
13880;DHT22;7010;48.200;16.332;2022-09-24T10:24:49;22.20;94.80
13880;DHT22;7010;48.200;16.332;2022-09-24T10:27:21;22.20;94.00
13880;DHT22;7010;48.200;16.332;2022-09-24T10:29:55;22.00;94.70
13880;DHT22;7010;48.200;16.332;2022-09-24T10:32:41;21.80;94.90
13880;DHT22;7010;48.200;16.332;2022-09-24T10:35:24;21.60;95.70
13880;DHT22;7010;48.200;16.332;2022-09-24T10:37:53;21.50;95.00
13880;DHT22;7010;48.200;16.332;2022-09-24T10:40:24;21.50;94.70
13880;DHT22;7010;48.200;16.332;2022-09-24T10:42:55;21.40;95.00
13880;DHT22;7010;48.200;16.332;2022-09-24T10:45:40;21.30;95.80
13880;DHT22;7010;48.200;16.332;2022-09-24T10:48:14;21.00;95.30
13880;DHT22;7010;48.200;16.332;2022-09-24T10:50:49;20.80;96.00
13880;DHT22;7010;48.200;16.332;2022-09-24T10:53:29;20.70;96.30
13880;DHT22;7010;48.200;16.332;2022-09-24T10:56:04;20.70;96.20
13880;DHT22;7010;48.200;16.332;2022-09-24T10:58:55;20.70;97.90
13880;DHT22;7010;48.200;16.332;2022-09-24T11:01:36;20.70;97.50
13880;DHT22;7010;48.200;16.332;2022-09-24T11:04:21;20.80;95.40
13880;DHT22;7010;48.200;16.332;2022-09-24T11:07:13;20.70;96.60
13880;DHT22;7010;48.200;16.332;2022-09-24T11:09:48;20.70;96.00
13880;DHT22;7010;48.200;16.332;2022-09-24T11:12:27;20.60;97.30
13880;DHT22;7010;48.200;16.332;2022-09-24T11:15:11;20.40;97.40
13880;DHT22;7010;48.200;16.332;2022-09-24T11:17:57;20.20;97.10
13880;DHT22;7010;48.200;16.332;2022-09-24T11:20:32;20.00;97.40
13880;DHT22;7010;48.200;16.332;2022-09-24T11:23:20;19.80;96.90
13880;DHT22;7010;48.200;16.332;2022-09-24T11:25:56;19.80;97.80
13880;DHT22;7010;48.200;16.332;2022-09-24T11:28:39;19.80;98.30
13880;DHT22;7010;48.200;16.332;2022-09-24T11:31:19;20.00;98.00
13880;DHT22;7010;48.200;16.332;2022-09-24T11:34:08;20.20;98.30
13880;DHT22;7010;48.200;16.332;2022-09-24T11:36:53;20.50;98.50
13880;DHT22;7010;48.200;16.332;2022-09-24T11:39:37;20.80;97.10
13880;DHT22;7010;48.200;16.332;2022-09-24T11:42:17;21.00;97.80
13880;DHT22;7010;48.200;16.332;2022-09-24T11:44:59;21.00;97.50
13880;DHT22;7010;48.200;16.332;2022-09-24T11:47:49;20.70;97.00
13880;DHT22;7010;48.200;16.332;2022-09-24T11:50:29;20.70;97.30
13880;DHT22;7010;48.200;16.332;2022-09-24T11:53:05;20.80;98.10
13880;DHT22;7010;48.200;16.332;2022-09-24T11:55:40;20.80;97.00
13880;DHT22;7010;48.200;16.332;2022-09-24T11:58:15;20.80;97.60
13880;DHT22;7010;48.200;16.332;2022-09-24T12:00:48;20.90;98.20
13880;DHT22;7010;48.200;16.332;2022-09-24T12:03:22;20.80;97.50
13880;DHT22;7010;48.200;16.332;2022-09-24T12:05:57;20.80;97.10
13880;DHT22;7010;48.200;16.332;2022-09-24T12:08:32;20.70;97.40
13880;DHT22;7010;48.200;16.332;2022-09-24T12:11:09;20.60;97.90
13880;DHT22;7010;48.200;16.332;2022-09-24T12:13:44;20.40;97.70
13880;DHT22;7010;48.200;16.332;2022-09-24T12:16:15;20.30;98.30
13880;DHT22;7010;48.200;16.332;2022-09-24T12:18:48;20.40;98.40
13880;DHT22;7010;48.200;16.332;2022-09-24T12:21:24;20.60;98.50
13880;DHT22;7010;48.200;16.332;2022-09-24T12:23:57;21.00;98.20
13880;DHT22;7010;48.200;16.332;2022-09-24T12:26:29;21.30;98.00
13880;DHT22;7010;48.200;16.332;2022-09-24T12:29:01;21.40;97.70
13880;DHT22;7010;48.200;16.332;2022-09-24T12:31:56;21.60;97.30
13880;DHT22;7010;48.200;16.332;2022-09-24T12:34:50;22.00;97.00
13880;DHT22;7010;48.200;16.332;2022-09-24T12:37:27;22.10;95.80
13880;DHT22;7010;48.200;16.332;2022-09-24T12:40:00;22.10;96.90
13880;DHT22;7010;48.200;16.332;2022-09-24T12:42:33;22.20;96.20
13880;DHT22;7010;48.200;16.332;2022-09-24T12:45:06;22.50;96.80
13880;DHT22;7010;48.200;16.332;2022-09-24T12:47:46;22.60;96.60
13880;DHT22;7010;48.200;16.332;2022-09-24T12:50:19;22.60;95.80
13880;DHT22;7010;48.200;16.332;2022-09-24T12:52:50;22.60;95.70
13880;DHT22;7010;48.200;16.332;2022-09-24T12:55:20;22.40;96.50
13880;DHT22;7010;48.200;16.332;2022-09-24T12:57:50;22.50;95.80
13880;DHT22;7010;48.200;16.332;2022-09-24T13:00:37;22.60;96.30
13880;DHT22;7010;48.200;16.332;2022-09-24T13:03:30;22.40;96.20
13880;DHT22;7010;48.200;16.332;2022-09-24T13:06:00;21.90;95.40
13880;DHT22;7010;48.200;16.332;2022-09-24T13:08:36;21.50;96.00
13880;DHT22;7010;48.200;16.332;2022-09-24T13:11:24;21.40;96.90
13880;DHT22;7010;48.200;16.332;2022-09-24T13:14:03;21.30;97.50
13880;DHT22;7010;48.200;16.332;2022-09-24T13:16:37;21.20;97.30
13880;DHT22;7010;48.200;16.332;2022-09-24T13:19:23;21.30;98.40
13880;DHT22;7010;48.200;16.332;2022-09-24T13:21:54;21.30;97.80
13880;DHT22;7010;48.200;16.332;2022-09-24T13:24:27;21.20;98.40
13880;DHT22;7010;48.200;16.332;2022-09-24T13:27:08;21.20;98.30
13880;DHT22;7010;48.200;16.332;2022-09-24T13:29:38;21.20;98.70
13880;DHT22;7010;48.200;16.332;2022-09-24T13:32:14;20.90;97.80
13880;DHT22;7010;48.200;16.332;2022-09-24T13:34:46;20.50;98.00
13880;DHT22;7010;48.200;16.332;2022-09-24T13:37:20;20.50;99.00
13880;DHT22;7010;48.200;16.332;2022-09-24T13:39:55;20.40;99.00
13880;DHT22;7010;48.200;16.332;2022-09-24T13:42:30;20.40;99.30
13880;DHT22;7010;48.200;16.332;2022-09-24T13:45:02;20.30;99.20
13880;DHT22;7010;48.200;16.332;2022-09-24T13:47:38;20.20;98.90
13880;DHT22;7010;48.200;16.332;2022-09-24T13:50:14;20.30;99.50
13880;DHT22;7010;48.200;16.332;2022-09-24T13:52:46;20.30;99.60
13880;DHT22;7010;48.200;16.332;2022-09-24T13:55:20;20.30;99.30
13880;DHT22;7010;48.200;16.332;2022-09-24T13:57:49;20.20;99.60
13880;DHT22;7010;48.200;16.332;2022-09-24T14:00:19;20.10;99.40
13880;DHT22;7010;48.200;16.332;2022-09-24T14:02:55;20.10;99.60
13880;DHT22;7010;48.200;16.332;2022-09-24T14:05:25;20.10;99.70
13880;DHT22;7010;48.200;16.332;2022-09-24T14:08:03;20.00;99.40
13880;DHT22;7010;48.200;16.332;2022-09-24T14:10:33;19.90;99.10
13880;DHT22;7010;48.200;16.332;2022-09-24T14:13:13;19.90;99.90
13880;DHT22;7010;48.200;16.332;2022-09-24T14:15:52;19.80;99.90
13880;DHT22;7010;48.200;16.332;2022-09-24T14:18:21;19.70;99.80
13880;DHT22;7010;48.200;16.332;2022-09-24T14:20:53;19.70;99.60
13880;DHT22;7010;48.200;16.332;2022-09-24T14:23:24;19.60;99.00
13880;DHT22;7010;48.200;16.332;2022-09-24T14:25:57;19.50;98.60
13880;DHT22;7010;48.200;16.332;2022-09-24T14:28:27;19.40;98.60
13880;DHT22;7010;48.200;16.332;2022-09-24T14:30:59;19.30;98.40
13880;DHT22;7010;48.200;16.332;2022-09-24T14:33:30;19.20;98.70
13880;DHT22;7010;48.200;16.332;2022-09-24T14:36:01;19.10;98.60
13880;DHT22;7010;48.200;16.332;2022-09-24T14:38:31;19.00;99.20
13880;DHT22;7010;48.200;16.332;2022-09-24T14:41:04;18.80;99.50
13880;DHT22;7010;48.200;16.332;2022-09-24T14:43:41;18.80;99.50
13880;DHT22;7010;48.200;16.332;2022-09-24T14:46:17;18.80;99.90
13880;DHT22;7010;48.200;16.332;2022-09-24T14:48:46;18.80;99.70
13880;DHT22;7010;48.200;16.332;2022-09-24T14:51:23;18.70;99.90
13880;DHT22;7010;48.200;16.332;2022-09-24T14:54:00;18.80;99.90
13880;DHT22;7010;48.200;16.332;2022-09-24T14:56:31;18.70;99.90
13880;DHT22;7010;48.200;16.332;2022-09-24T14:59:00;18.70;99.90
13880;DHT22;7010;48.200;16.332;2022-09-24T15:01:30;18.70;99.90
13880;DHT22;7010;48.200;16.332;2022-09-24T15:04:01;18.70;99.90
13880;DHT22;7010;48.200;16.332;2022-09-24T15:06:32;18.70;99.90
13880;DHT22;7010;48.200;16.332;2022-09-24T15:09:03;18.70;99.90
13880;DHT22;7010;48.200;16.332;2022-09-24T15:11:35;18.70;99.90
13880;DHT22;7010;48.200;16.332;2022-09-24T15:14:12;18.60;99.90
13880;DHT22;7010;48.200;16.332;2022-09-24T15:16:46;18.60;99.90
13880;DHT22;7010;48.200;16.332;2022-09-24T15:19:16;18.60;99.90
13880;DHT22;7010;48.200;16.332;2022-09-24T15:21:46;18.50;99.90
13880;DHT22;7010;48.200;16.332;2022-09-24T15:24:16;18.50;99.90
13880;DHT22;7010;48.200;16.332;2022-09-24T15:26:48;18.50;99.90
13880;DHT22;7010;48.200;16.332;2022-09-24T15:29:18;18.40;99.90
13880;DHT22;7010;48.200;16.332;2022-09-24T15:31:50;18.40;99.90
13880;DHT22;7010;48.200;16.332;2022-09-24T15:34:19;18.40;99.90
13880;DHT22;7010;48.200;16.332;2022-09-24T15:36:47;18.40;99.90
13880;DHT22;7010;48.200;16.332;2022-09-24T15:39:16;18.30;99.90
13880;DHT22;7010;48.200;16.332;2022-09-24T15:41:47;18.30;99.90
13880;DHT22;7010;48.200;16.332;2022-09-24T15:44:19;18.30;99.90
13880;DHT22;7010;48.200;16.332;2022-09-24T15:46:49;18.20;99.90
13880;DHT22;7010;48.200;16.332;2022-09-24T15:49:18;18.20;99.90
13880;DHT22;7010;48.200;16.332;2022-09-24T15:51:49;18.20;99.90
13880;DHT22;7010;48.200;16.332;2022-09-24T15:54:17;18.10;99.90
13880;DHT22;7010;48.200;16.332;2022-09-24T15:56:48;18.10;99.90
13880;DHT22;7010;48.200;16.332;2022-09-24T15:59:19;18.10;99.90
13880;DHT22;7010;48.200;16.332;2022-09-24T16:01:48;18.00;99.90
13880;DHT22;7010;48.200;16.332;2022-09-24T16:04:18;17.90;99.90
13880;DHT22;7010;48.200;16.332;2022-09-24T16:06:46;17.90;99.90
13880;DHT22;7010;48.200;16.332;2022-09-24T16:09:15;17.80;99.90
13880;DHT22;7010;48.200;16.332;2022-09-24T16:11:43;17.80;99.90